Ogden Hinckley Airport Ogden US
ICAO: KOGD
IATA: OGD
Category: Medium
Scheduled Services: No

Elevation: 4473 ft
TransAlt. 18000 ft.

Airport Communications:
APP/DEP:121.1
ASOS:125.55
ATIS:125.55
CTAF:118.7
GND:121.7
CEDAR CITY RDO:122.45
TWR:118.7
UNICOM:122.95

KOGD Zoom In..

If you have problems with the map follow the link
https://www.worldairports.se/pages/airport.php?
ICAO=KOGD

Runways:

(A) RW 03 length 8103 ft width 150 ft
ILS 111.70 / hdg 31

(B) RW 07 length 3618 ft width 150 ft
---- / hdg 75

(C) RW 16 length 5195 ft width 100 ft
---- / hdg 165

(D) RW 21 length 8103 ft width 150 ft
---- / hdg 211

(E) RW 25 length 3618 ft width 150 ft
---- / hdg 255

(F) RW 34 length 5195 ft width 100 ft
---- / hdg 345

Location; KOGD
Day. 08 / Time. 13.10 Zulu
* Altimeter: 29.89
* Temperature: -02° c. -28.4°f.
* Wind from: VRB° Speed 03 kn.
Dewpoint: -02° c.
Visibility: 2 Statute Miles.
Clouds: Broken 100 ft.
Clouds: Broken 1000 ft.
Clouds: Overcast 2300 ft.
Conditions: Mist.

KOGD 081310Z AUTO VRB03KT 2SM UP BR BKN001 BKN010 OVC023 M02/M02 A2989 RMK AO2 P0002 I1000 T10171017 $


Wind From VRB°
Speed 03 kn.

 
 
jpsmedia worldairports.se 2019   terms of use